Portada
METAR-TAF:

METAR-TAF

Aeroports :

Windhoek, Namíbia

latitud: 22-29S, longitud: 017-28E, altitud: 1715 m

Observació

L'informe es va fer fa 46 minuts, a les 03:00 UTC
Vent 3 kt del Oest/Sud-Oest
Temperatura 3°C
Humitat 52%
Pressió 1024 hPa
Visibilitat 10 km o més
sense núvols per sota de 1500 mi sense presència de cumulonimbus.

METAR: FYWH 180300Z 24003KT CAVOK 03/M06 Q1024 NOSIG

Hora: 05:46 (03:46 UTC)

Pronòstic

L'informe es va fer fa 12 hores i 2 minuts, a les 15:44 UTC
Pronòstic vàlid del 17 a les 18 UTC al 18 a les 18 UTC
Vent 10 kt del Oest/Nord-Oest
Visibilitat 10 km o més
sense núvols per sota de 1500 mi sense presència de cumulonimbus.

TAF: FYWH 171544Z 1718/1818 29010KT CAVOK

Observacions i pronòstics meteorològics de més de 4000 aeroports (METAR i TAF).

Les estacions disponibles són els punts grocs i vermells al mapa.

Posi el ratolí al punt desitjat per veure el nom de l'estació.

Feu clic per veure les observacions i els pronòstics meteorològics.

Per canviar el mapa: feu clic els botons verds amb una creu de color negre per apropar; al botó verd amb un guió per allunyar la imatge; o en les fletxes verdes per a mapes adjacents.


METAR-TAF: